sensor_id;sensor_type;location;lat;lon;timestamp;P1;durP1;ratioP1;P2;durP2;ratioP2
63900;SDS011;50538;53.482;10.294;2023-02-18T00:05:45;10.55;;;1.48;;
63900;SDS011;50538;53.482;10.294;2023-02-18T00:15:46;5.15;;;0.90;;
63900;SDS011;50538;53.482;10.294;2023-02-18T00:25:46;12.82;;;1.52;;
63900;SDS011;50538;53.482;10.294;2023-02-18T00:35:46;8.65;;;1.42;;
63900;SDS011;50538;53.482;10.294;2023-02-18T00:45:47;7.53;;;1.20;;
63900;SDS011;50538;53.482;10.294;2023-02-18T00:55:47;12.32;;;1.95;;
63900;SDS011;50538;53.482;10.294;2023-02-18T01:05:48;13.73;;;1.38;;
63900;SDS011;50538;53.482;10.294;2023-02-18T01:15:49;4.38;;;1.20;;
63900;SDS011;50538;53.482;10.294;2023-02-18T01:25:49;6.28;;;1.42;;
63900;SDS011;50538;53.482;10.294;2023-02-18T01:35:51;7.50;;;1.15;;
63900;SDS011;50538;53.482;10.294;2023-02-18T01:45:59;6.72;;;0.73;;
63900;SDS011;50538;53.482;10.294;2023-02-18T01:56:04;2.85;;;0.65;;
63900;SDS011;50538;53.482;10.294;2023-02-18T02:06:15;1.13;;;0.55;;
63900;SDS011;50538;53.482;10.294;2023-02-18T02:16:21;8.20;;;1.05;;
63900;SDS011;50538;53.482;10.294;2023-02-18T03:17:26;4.88;;;1.17;;
63900;SDS011;50538;53.482;10.294;2023-02-18T03:27:33;5.95;;;0.90;;
63900;SDS011;50538;53.482;10.294;2023-02-18T03:38:01;3.13;;;0.90;;
63900;SDS011;50538;53.482;10.294;2023-02-18T03:48:03;14.20;;;0.80;;
63900;SDS011;50538;53.482;10.294;2023-02-18T03:58:04;7.63;;;1.08;;
63900;SDS011;50538;53.482;10.294;2023-02-18T04:08:04;3.90;;;0.80;;
63900;SDS011;50538;53.482;10.294;2023-02-18T04:18:04;10.52;;;1.35;;
63900;SDS011;50538;53.482;10.294;2023-02-18T04:28:05;6.30;;;1.00;;
63900;SDS011;50538;53.482;10.294;2023-02-18T04:38:06;1.83;;;0.40;;
63900;SDS011;50538;53.482;10.294;2023-02-18T04:48:07;2.88;;;0.55;;
63900;SDS011;50538;53.482;10.294;2023-02-18T04:58:07;4.47;;;0.82;;
63900;SDS011;50538;53.482;10.294;2023-02-18T05:08:09;4.05;;;0.55;;
63900;SDS011;50538;53.482;10.294;2023-02-18T05:18:10;1.60;;;0.55;;
63900;SDS011;50538;53.482;10.294;2023-02-18T05:28:10;2.75;;;0.70;;
63900;SDS011;50538;53.482;10.294;2023-02-18T05:38:10;2.53;;;0.45;;
63900;SDS011;50538;53.482;10.294;2023-02-18T05:48:11;1.05;;;0.50;;
63900;SDS011;50538;53.482;10.294;2023-02-18T05:58:11;3.08;;;0.60;;
63900;SDS011;50538;53.482;10.294;2023-02-18T06:08:12;3.67;;;0.93;;
63900;SDS011;50538;53.482;10.294;2023-02-18T06:18:13;3.13;;;0.90;;
63900;SDS011;50538;53.482;10.294;2023-02-18T06:28:13;3.03;;;0.52;;
63900;SDS011;50538;53.482;10.294;2023-02-18T06:38:13;1.10;;;0.30;;
63900;SDS011;50538;53.482;10.294;2023-02-18T06:48:13;2.20;;;0.98;;
63900;SDS011;50538;53.482;10.294;2023-02-18T06:58:15;1.50;;;0.55;;
63900;SDS011;50538;53.482;10.294;2023-02-18T07:08:16;1.27;;;0.30;;
63900;SDS011;50538;53.482;10.294;2023-02-18T07:18:17;0.98;;;0.60;;
63900;SDS011;50538;53.482;10.294;2023-02-18T07:28:18;2.47;;;0.47;;
63900;SDS011;50538;53.482;10.294;2023-02-18T07:38:18;3.28;;;0.82;;
63900;SDS011;50538;53.482;10.294;2023-02-18T07:48:19;0.70;;;0.43;;
63900;SDS011;50538;53.482;10.294;2023-02-18T07:58:26;2.10;;;0.28;;
63900;SDS011;50538;53.482;10.294;2023-02-18T08:08:29;0.63;;;0.20;;
63900;SDS011;50538;53.482;10.294;2023-02-18T08:18:30;0.80;;;0.43;;
63900;SDS011;50538;53.482;10.294;2023-02-18T08:28:31;1.25;;;0.30;;
63900;SDS011;50538;53.482;10.294;2023-02-18T08:38:31;4.30;;;0.65;;
63900;SDS011;50538;53.482;10.294;2023-02-18T08:48:31;2.72;;;0.70;;
63900;SDS011;50538;53.482;10.294;2023-02-18T08:58:32;1.70;;;0.50;;
63900;SDS011;50538;53.482;10.294;2023-02-18T09:08:36;3.80;;;0.93;;
63900;SDS011;50538;53.482;10.294;2023-02-18T09:18:36;4.22;;;0.43;;
63900;SDS011;50538;53.482;10.294;2023-02-18T09:28:36;1.17;;;0.30;;
63900;SDS011;50538;53.482;10.294;2023-02-18T09:38:37;2.13;;;0.50;;
63900;SDS011;50538;53.482;10.294;2023-02-18T09:48:37;1.80;;;0.63;;
63900;SDS011;50538;53.482;10.294;2023-02-18T09:58:38;7.78;;;2.63;;
63900;SDS011;50538;53.482;10.294;2023-02-18T10:08:43;4.20;;;1.52;;
63900;SDS011;50538;53.482;10.294;2023-02-18T10:18:49;2.60;;;0.75;;
63900;SDS011;50538;53.482;10.294;2023-02-18T10:28:54;2.35;;;1.00;;
63900;SDS011;50538;53.482;10.294;2023-02-18T10:59:32;1.48;;;0.80;;
63900;SDS011;50538;53.482;10.294;2023-02-18T11:09:40;2.45;;;0.73;;
63900;SDS011;50538;53.482;10.294;2023-02-18T11:19:53;2.55;;;1.00;;
63900;SDS011;50538;53.482;10.294;2023-02-18T11:40:35;2.58;;;1.20;;
63900;SDS011;50538;53.482;10.294;2023-02-18T11:50:36;1.83;;;0.90;;
63900;SDS011;50538;53.482;10.294;2023-02-18T12:10:48;2.85;;;0.20;;
63900;SDS011;50538;53.482;10.294;2023-02-18T12:20:54;0.28;;;0.13;;
63900;SDS011;50538;53.482;10.294;2023-02-18T12:52:19;1.45;;;0.47;;
63900;SDS011;50538;53.482;10.294;2023-02-18T13:13:13;2.33;;;1.17;;
63900;SDS011;50538;53.482;10.294;2023-02-18T13:23:18;3.65;;;1.02;;
63900;SDS011;50538;53.482;10.294;2023-02-18T13:33:32;8.40;;;1.80;;
63900;SDS011;50538;53.482;10.294;2023-02-18T13:43:40;7.07;;;1.63;;
63900;SDS011;50538;53.482;10.294;2023-02-18T13:53:41;5.10;;;1.00;;
63900;SDS011;50538;53.482;10.294;2023-02-18T14:13:53;1.60;;;0.50;;
63900;SDS011;50538;53.482;10.294;2023-02-18T14:24:12;8.38;;;1.20;;
63900;SDS011;50538;53.482;10.294;2023-02-18T14:54:35;0.55;;;0.47;;
63900;SDS011;50538;53.482;10.294;2023-02-18T15:04:36;1.70;;;0.95;;
63900;SDS011;50538;53.482;10.294;2023-02-18T15:14:39;1.13;;;0.85;;
63900;SDS011;50538;53.482;10.294;2023-02-18T15:24:41;1.38;;;0.73;;
63900;SDS011;50538;53.482;10.294;2023-02-18T15:34:43;1.20;;;0.57;;
63900;SDS011;50538;53.482;10.294;2023-02-18T15:44:48;1.00;;;0.77;;
63900;SDS011;50538;53.482;10.294;2023-02-18T15:54:51;0.80;;;0.63;;
63900;SDS011;50538;53.482;10.294;2023-02-18T16:04:57;1.20;;;0.68;;
63900;SDS011;50538;53.482;10.294;2023-02-18T16:14:58;1.13;;;0.57;;
63900;SDS011;50538;53.482;10.294;2023-02-18T16:35:12;2.88;;;0.70;;
63900;SDS011;50538;53.482;10.294;2023-02-18T16:45:12;2.35;;;1.30;;
63900;SDS011;50538;53.482;10.294;2023-02-18T16:55:20;1.48;;;0.90;;
63900;SDS011;50538;53.482;10.294;2023-02-18T17:05:27;0.70;;;0.45;;
63900;SDS011;50538;53.482;10.294;2023-02-18T17:15:30;1.73;;;1.02;;
63900;SDS011;50538;53.482;10.294;2023-02-18T17:25:34;2.88;;;1.58;;
63900;SDS011;50538;53.482;10.294;2023-02-18T17:35:37;1.85;;;0.90;;
63900;SDS011;50538;53.482;10.294;2023-02-18T17:56:04;5.72;;;1.75;;
63900;SDS011;50538;53.482;10.294;2023-02-18T18:06:05;3.42;;;1.30;;
63900;SDS011;50538;53.482;10.294;2023-02-18T18:16:18;4.05;;;1.60;;
63900;SDS011;50538;53.482;10.294;2023-02-18T18:26:19;3.97;;;1.88;;
63900;SDS011;50538;53.482;10.294;2023-02-18T18:36:20;4.65;;;2.03;;
63900;SDS011;50538;53.482;10.294;2023-02-18T18:46:22;4.53;;;2.15;;
63900;SDS011;50538;53.482;10.294;2023-02-18T18:56:23;7.93;;;2.47;;
63900;SDS011;50538;53.482;10.294;2023-02-18T19:06:23;4.70;;;2.15;;
63900;SDS011;50538;53.482;10.294;2023-02-18T19:16:28;5.60;;;2.45;;
63900;SDS011;50538;53.482;10.294;2023-02-18T19:26:36;8.70;;;3.83;;
63900;SDS011;50538;53.482;10.294;2023-02-18T19:36:36;9.68;;;3.95;;
63900;SDS011;50538;53.482;10.294;2023-02-18T19:46:37;7.70;;;3.38;;
63900;SDS011;50538;53.482;10.294;2023-02-18T19:56:37;6.88;;;2.70;;
63900;SDS011;50538;53.482;10.294;2023-02-18T20:06:37;4.63;;;1.90;;
63900;SDS011;50538;53.482;10.294;2023-02-18T20:16:37;6.32;;;2.83;;
63900;SDS011;50538;53.482;10.294;2023-02-18T20:26:38;6.63;;;3.05;;
63900;SDS011;50538;53.482;10.294;2023-02-18T20:36:38;8.05;;;2.97;;
63900;SDS011;50538;53.482;10.294;2023-02-18T20:46:38;5.97;;;2.45;;
63900;SDS011;50538;53.482;10.294;2023-02-18T20:56:39;4.30;;;2.08;;
63900;SDS011;50538;53.482;10.294;2023-02-18T21:06:39;5.32;;;2.80;;
63900;SDS011;50538;53.482;10.294;2023-02-18T21:16:39;8.10;;;3.25;;
63900;SDS011;50538;53.482;10.294;2023-02-18T21:26:40;6.47;;;2.83;;
63900;SDS011;50538;53.482;10.294;2023-02-18T21:36:41;5.40;;;2.42;;
63900;SDS011;50538;53.482;10.294;2023-02-18T21:46:42;7.30;;;2.70;;
63900;SDS011;50538;53.482;10.294;2023-02-18T21:56:43;4.82;;;1.73;;
63900;SDS011;50538;53.482;10.294;2023-02-18T22:06:43;4.65;;;1.73;;
63900;SDS011;50538;53.482;10.294;2023-02-18T22:16:43;5.72;;;2.17;;
63900;SDS011;50538;53.482;10.294;2023-02-18T22:26:44;4.38;;;2.10;;
63900;SDS011;50538;53.482;10.294;2023-02-18T22:36:45;3.08;;;1.73;;
63900;SDS011;50538;53.482;10.294;2023-02-18T22:46:46;4.07;;;2.03;;
63900;SDS011;50538;53.482;10.294;2023-02-18T22:56:46;7.80;;;2.00;;
63900;SDS011;50538;53.482;10.294;2023-02-18T23:06:47;6.05;;;2.17;;
63900;SDS011;50538;53.482;10.294;2023-02-18T23:16:49;4.80;;;1.88;;
63900;SDS011;50538;53.482;10.294;2023-02-18T23:27:12;5.13;;;2.47;;
63900;SDS011;50538;53.482;10.294;2023-02-18T23:37:13;3.90;;;1.48;;
63900;SDS011;50538;53.482;10.294;2023-02-18T23:47:14;4.72;;;1.70;;
63900;SDS011;50538;53.482;10.294;2023-02-18T23:57:14;4.03;;;1.45;;
